sensor_id;sensor_type;location;lat;lon;timestamp;temperature;humidity
28677;DHT22;15858;48.338;11.078;2023-04-21T00:01:46;6.70;99.90
28677;DHT22;15858;48.338;11.078;2023-04-21T00:04:13;6.70;99.90
28677;DHT22;15858;48.338;11.078;2023-04-21T00:06:40;6.70;99.90
28677;DHT22;15858;48.338;11.078;2023-04-21T00:09:07;6.70;99.90
28677;DHT22;15858;48.338;11.078;2023-04-21T00:11:34;6.70;99.90
28677;DHT22;15858;48.338;11.078;2023-04-21T00:14:00;6.70;99.90
28677;DHT22;15858;48.338;11.078;2023-04-21T00:16:27;6.70;99.90
28677;DHT22;15858;48.338;11.078;2023-04-21T00:18:54;6.70;99.90
28677;DHT22;15858;48.338;11.078;2023-04-21T00:21:20;6.70;99.90
28677;DHT22;15858;48.338;11.078;2023-04-21T00:23:47;6.70;99.90
28677;DHT22;15858;48.338;11.078;2023-04-21T00:26:13;6.70;99.90
28677;DHT22;15858;48.338;11.078;2023-04-21T00:28:40;6.70;99.90
28677;DHT22;15858;48.338;11.078;2023-04-21T00:31:06;6.70;99.90
28677;DHT22;15858;48.338;11.078;2023-04-21T00:33:33;6.70;99.90
28677;DHT22;15858;48.338;11.078;2023-04-21T00:35:59;6.60;99.90
28677;DHT22;15858;48.338;11.078;2023-04-21T00:38:26;6.60;99.90
28677;DHT22;15858;48.338;11.078;2023-04-21T00:40:53;6.60;99.90
28677;DHT22;15858;48.338;11.078;2023-04-21T00:43:19;6.60;99.90
28677;DHT22;15858;48.338;11.078;2023-04-21T00:45:46;6.60;99.90
28677;DHT22;15858;48.338;11.078;2023-04-21T00:48:12;6.70;99.90
28677;DHT22;15858;48.338;11.078;2023-04-21T00:50:39;6.70;99.90
28677;DHT22;15858;48.338;11.078;2023-04-21T00:53:06;6.70;99.90
28677;DHT22;15858;48.338;11.078;2023-04-21T00:55:33;6.60;99.90
28677;DHT22;15858;48.338;11.078;2023-04-21T00:58:01;6.60;99.90
28677;DHT22;15858;48.338;11.078;2023-04-21T01:00:28;6.70;99.90
28677;DHT22;15858;48.338;11.078;2023-04-21T01:02:55;6.60;99.90
28677;DHT22;15858;48.338;11.078;2023-04-21T01:05:22;6.60;99.90
28677;DHT22;15858;48.338;11.078;2023-04-21T01:07:49;6.60;99.90
28677;DHT22;15858;48.338;11.078;2023-04-21T01:10:16;6.60;99.90
28677;DHT22;15858;48.338;11.078;2023-04-21T01:12:46;6.60;99.90
28677;DHT22;15858;48.338;11.078;2023-04-21T01:15:15;6.60;99.90
28677;DHT22;15858;48.338;11.078;2023-04-21T01:17:42;6.60;99.90
28677;DHT22;15858;48.338;11.078;2023-04-21T01:20:13;6.60;99.90
28677;DHT22;15858;48.338;11.078;2023-04-21T01:22:41;6.60;99.90
28677;DHT22;15858;48.338;11.078;2023-04-21T01:25:08;6.60;99.90
28677;DHT22;15858;48.338;11.078;2023-04-21T01:27:35;6.60;99.90
28677;DHT22;15858;48.338;11.078;2023-04-21T01:30:02;6.60;99.90
28677;DHT22;15858;48.338;11.078;2023-04-21T01:32:29;6.60;99.90
28677;DHT22;15858;48.338;11.078;2023-04-21T01:34:57;6.50;99.90
28677;DHT22;15858;48.338;11.078;2023-04-21T01:37:28;6.50;99.90
28677;DHT22;15858;48.338;11.078;2023-04-21T01:39:58;6.50;99.90
28677;DHT22;15858;48.338;11.078;2023-04-21T01:42:27;6.50;99.90
28677;DHT22;15858;48.338;11.078;2023-04-21T01:44:54;6.50;99.90
28677;DHT22;15858;48.338;11.078;2023-04-21T01:47:22;6.50;99.90
28677;DHT22;15858;48.338;11.078;2023-04-21T01:49:49;6.50;99.90
28677;DHT22;15858;48.338;11.078;2023-04-21T01:52:16;6.50;99.90
28677;DHT22;15858;48.338;11.078;2023-04-21T01:54:43;6.40;99.90
28677;DHT22;15858;48.338;11.078;2023-04-21T01:57:10;6.40;99.90
28677;DHT22;15858;48.338;11.078;2023-04-21T01:59:38;6.40;99.90
28677;DHT22;15858;48.338;11.078;2023-04-21T02:02:05;6.30;99.90
28677;DHT22;15858;48.338;11.078;2023-04-21T02:04:31;6.40;99.90
28677;DHT22;15858;48.338;11.078;2023-04-21T02:06:59;6.40;99.90
28677;DHT22;15858;48.338;11.078;2023-04-21T02:09:25;6.40;99.90
28677;DHT22;15858;48.338;11.078;2023-04-21T02:11:53;6.40;99.90
28677;DHT22;15858;48.338;11.078;2023-04-21T02:14:20;6.40;99.90
28677;DHT22;15858;48.338;11.078;2023-04-21T02:16:47;6.40;99.90
28677;DHT22;15858;48.338;11.078;2023-04-21T02:19:13;6.40;99.90
28677;DHT22;15858;48.338;11.078;2023-04-21T02:21:40;6.40;99.90
28677;DHT22;15858;48.338;11.078;2023-04-21T02:24:07;6.50;99.90
28677;DHT22;15858;48.338;11.078;2023-04-21T02:26:33;6.40;99.90
28677;DHT22;15858;48.338;11.078;2023-04-21T02:29:00;6.40;99.90
28677;DHT22;15858;48.338;11.078;2023-04-21T02:31:27;6.40;99.90
28677;DHT22;15858;48.338;11.078;2023-04-21T02:33:54;6.40;99.90
28677;DHT22;15858;48.338;11.078;2023-04-21T02:36:21;6.40;99.90
28677;DHT22;15858;48.338;11.078;2023-04-21T02:38:47;6.40;99.90
28677;DHT22;15858;48.338;11.078;2023-04-21T02:41:14;6.40;99.90
28677;DHT22;15858;48.338;11.078;2023-04-21T02:43:40;6.50;99.90
28677;DHT22;15858;48.338;11.078;2023-04-21T02:46:07;6.50;99.90
28677;DHT22;15858;48.338;11.078;2023-04-21T02:48:35;6.50;99.90
28677;DHT22;15858;48.338;11.078;2023-04-21T02:51:01;6.50;99.90
28677;DHT22;15858;48.338;11.078;2023-04-21T02:53:28;6.50;99.90
28677;DHT22;15858;48.338;11.078;2023-04-21T02:55:55;6.50;99.90
28677;DHT22;15858;48.338;11.078;2023-04-21T02:58:22;6.50;99.90
28677;DHT22;15858;48.338;11.078;2023-04-21T03:00:48;6.40;99.90
28677;DHT22;15858;48.338;11.078;2023-04-21T03:03:15;6.30;99.90
28677;DHT22;15858;48.338;11.078;2023-04-21T03:05:42;6.30;99.90
28677;DHT22;15858;48.338;11.078;2023-04-21T03:08:09;6.30;99.90
28677;DHT22;15858;48.338;11.078;2023-04-21T03:10:36;6.30;99.90
28677;DHT22;15858;48.338;11.078;2023-04-21T03:13:03;6.30;99.90
28677;DHT22;15858;48.338;11.078;2023-04-21T03:15:30;6.30;99.90
28677;DHT22;15858;48.338;11.078;2023-04-21T03:17:56;6.20;99.90
28677;DHT22;15858;48.338;11.078;2023-04-21T03:20:23;6.20;99.90
28677;DHT22;15858;48.338;11.078;2023-04-21T03:22:52;6.20;99.90
28677;DHT22;15858;48.338;11.078;2023-04-21T03:25:19;6.20;99.90
28677;DHT22;15858;48.338;11.078;2023-04-21T03:27:45;6.20;99.90
28677;DHT22;15858;48.338;11.078;2023-04-21T03:30:12;6.10;99.90
28677;DHT22;15858;48.338;11.078;2023-04-21T03:32:38;6.10;99.90
28677;DHT22;15858;48.338;11.078;2023-04-21T03:35:05;6.10;99.90
28677;DHT22;15858;48.338;11.078;2023-04-21T03:37:32;6.10;99.90
28677;DHT22;15858;48.338;11.078;2023-04-21T03:39:59;6.10;99.90
28677;DHT22;15858;48.338;11.078;2023-04-21T03:42:25;6.10;99.90
28677;DHT22;15858;48.338;11.078;2023-04-21T03:44:52;6.10;99.90
28677;DHT22;15858;48.338;11.078;2023-04-21T03:47:19;6.10;99.90
28677;DHT22;15858;48.338;11.078;2023-04-21T03:49:45;6.20;99.90
28677;DHT22;15858;48.338;11.078;2023-04-21T03:52:12;6.20;99.90
28677;DHT22;15858;48.338;11.078;2023-04-21T03:54:38;6.20;99.90
28677;DHT22;15858;48.338;11.078;2023-04-21T03:57:05;6.20;99.90
28677;DHT22;15858;48.338;11.078;2023-04-21T03:59:32;6.20;99.90
28677;DHT22;15858;48.338;11.078;2023-04-21T04:01:58;6.20;99.90
28677;DHT22;15858;48.338;11.078;2023-04-21T04:04:25;6.20;99.90
28677;DHT22;15858;48.338;11.078;2023-04-21T04:06:52;6.20;99.90
28677;DHT22;15858;48.338;11.078;2023-04-21T04:09:18;6.20;99.90
28677;DHT22;15858;48.338;11.078;2023-04-21T04:11:46;6.20;99.90
28677;DHT22;15858;48.338;11.078;2023-04-21T04:14:12;6.20;99.90
28677;DHT22;15858;48.338;11.078;2023-04-21T04:16:39;6.20;99.90
28677;DHT22;15858;48.338;11.078;2023-04-21T04:19:06;6.20;99.90
28677;DHT22;15858;48.338;11.078;2023-04-21T04:21:32;6.20;99.90
28677;DHT22;15858;48.338;11.078;2023-04-21T04:23:59;6.20;99.90
28677;DHT22;15858;48.338;11.078;2023-04-21T04:26:26;6.10;99.90
28677;DHT22;15858;48.338;11.078;2023-04-21T04:28:53;6.10;99.90
28677;DHT22;15858;48.338;11.078;2023-04-21T04:31:21;6.10;99.90
28677;DHT22;15858;48.338;11.078;2023-04-21T04:33:47;6.20;99.90
28677;DHT22;15858;48.338;11.078;2023-04-21T04:36:14;6.10;99.90
28677;DHT22;15858;48.338;11.078;2023-04-21T04:38:40;6.20;99.90
28677;DHT22;15858;48.338;11.078;2023-04-21T04:41:07;6.20;99.90
28677;DHT22;15858;48.338;11.078;2023-04-21T04:43:34;6.20;99.90
28677;DHT22;15858;48.338;11.078;2023-04-21T04:46:04;6.20;99.90
28677;DHT22;15858;48.338;11.078;2023-04-21T04:48:31;6.20;99.90
28677;DHT22;15858;48.338;11.078;2023-04-21T04:50:57;6.20;99.90
28677;DHT22;15858;48.338;11.078;2023-04-21T04:53:26;6.30;99.90
28677;DHT22;15858;48.338;11.078;2023-04-21T04:55:53;6.30;99.90
28677;DHT22;15858;48.338;11.078;2023-04-21T04:58:19;6.30;99.90
28677;DHT22;15858;48.338;11.078;2023-04-21T05:00:46;6.30;99.90
28677;DHT22;15858;48.338;11.078;2023-04-21T05:03:12;6.30;99.90
28677;DHT22;15858;48.338;11.078;2023-04-21T05:05:39;6.40;99.90
28677;DHT22;15858;48.338;11.078;2023-04-21T05:08:06;6.30;99.90
28677;DHT22;15858;48.338;11.078;2023-04-21T05:10:32;6.30;99.90
28677;DHT22;15858;48.338;11.078;2023-04-21T05:12:59;6.40;99.90
28677;DHT22;15858;48.338;11.078;2023-04-21T05:15:26;6.40;99.90
28677;DHT22;15858;48.338;11.078;2023-04-21T05:17:52;6.40;99.90
28677;DHT22;15858;48.338;11.078;2023-04-21T05:20:19;6.60;99.90
28677;DHT22;15858;48.338;11.078;2023-04-21T05:22:45;6.60;99.90
28677;DHT22;15858;48.338;11.078;2023-04-21T05:25:12;6.60;99.90
28677;DHT22;15858;48.338;11.078;2023-04-21T05:27:39;6.60;99.90
28677;DHT22;15858;48.338;11.078;2023-04-21T05:30:06;6.60;99.90
28677;DHT22;15858;48.338;11.078;2023-04-21T05:32:33;6.60;99.90
28677;DHT22;15858;48.338;11.078;2023-04-21T05:34:59;6.60;99.90
28677;DHT22;15858;48.338;11.078;2023-04-21T05:37:26;6.60;99.90
28677;DHT22;15858;48.338;11.078;2023-04-21T05:39:53;6.60;99.90
28677;DHT22;15858;48.338;11.078;2023-04-21T05:42:19;6.60;99.90
28677;DHT22;15858;48.338;11.078;2023-04-21T05:44:46;6.60;99.90
28677;DHT22;15858;48.338;11.078;2023-04-21T05:47:12;6.60;99.90
28677;DHT22;15858;48.338;11.078;2023-04-21T05:49:39;6.70;99.90
28677;DHT22;15858;48.338;11.078;2023-04-21T05:52:08;6.70;99.90
28677;DHT22;15858;48.338;11.078;2023-04-21T05:54:34;6.70;99.90
28677;DHT22;15858;48.338;11.078;2023-04-21T05:57:01;6.80;99.90
28677;DHT22;15858;48.338;11.078;2023-04-21T05:59:28;6.70;99.90
28677;DHT22;15858;48.338;11.078;2023-04-21T06:01:54;6.80;99.90
28677;DHT22;15858;48.338;11.078;2023-04-21T06:04:21;6.80;99.90
28677;DHT22;15858;48.338;11.078;2023-04-21T06:06:48;6.80;99.90
28677;DHT22;15858;48.338;11.078;2023-04-21T06:09:15;6.90;99.90
28677;DHT22;15858;48.338;11.078;2023-04-21T06:11:41;6.80;99.90
28677;DHT22;15858;48.338;11.078;2023-04-21T06:14:08;6.90;99.90
28677;DHT22;15858;48.338;11.078;2023-04-21T06:16:34;7.00;99.90
28677;DHT22;15858;48.338;11.078;2023-04-21T06:19:01;6.90;99.90
28677;DHT22;15858;48.338;11.078;2023-04-21T06:21:28;7.00;99.90
28677;DHT22;15858;48.338;11.078;2023-04-21T06:23:54;7.00;99.90
28677;DHT22;15858;48.338;11.078;2023-04-21T06:26:21;7.00;99.90
28677;DHT22;15858;48.338;11.078;2023-04-21T06:28:47;7.00;99.90
28677;DHT22;15858;48.338;11.078;2023-04-21T06:31:14;7.00;99.90
28677;DHT22;15858;48.338;11.078;2023-04-21T06:33:41;7.00;99.90
28677;DHT22;15858;48.338;11.078;2023-04-21T06:36:08;7.10;99.90
28677;DHT22;15858;48.338;11.078;2023-04-21T06:38:34;7.10;99.90
28677;DHT22;15858;48.338;11.078;2023-04-21T06:41:01;7.10;99.90
28677;DHT22;15858;48.338;11.078;2023-04-21T06:43:28;7.10;99.90
28677;DHT22;15858;48.338;11.078;2023-04-21T06:45:54;7.20;99.90
28677;DHT22;15858;48.338;11.078;2023-04-21T06:48:21;7.20;99.90
28677;DHT22;15858;48.338;11.078;2023-04-21T06:50:47;7.20;99.90
28677;DHT22;15858;48.338;11.078;2023-04-21T06:53:14;7.20;99.90
28677;DHT22;15858;48.338;11.078;2023-04-21T06:55:41;7.20;99.90
28677;DHT22;15858;48.338;11.078;2023-04-21T06:58:07;7.30;99.90
28677;DHT22;15858;48.338;11.078;2023-04-21T07:00:34;7.20;99.90
28677;DHT22;15858;48.338;11.078;2023-04-21T07:03:01;7.20;99.90
28677;DHT22;15858;48.338;11.078;2023-04-21T07:05:27;7.30;99.90
28677;DHT22;15858;48.338;11.078;2023-04-21T07:07:54;7.30;99.90
28677;DHT22;15858;48.338;11.078;2023-04-21T07:10:20;7.30;99.90
28677;DHT22;15858;48.338;11.078;2023-04-21T07:12:47;7.20;99.90
28677;DHT22;15858;48.338;11.078;2023-04-21T07:15:14;7.30;99.90
28677;DHT22;15858;48.338;11.078;2023-04-21T07:17:40;7.30;99.90
28677;DHT22;15858;48.338;11.078;2023-04-21T07:20:07;7.20;99.90
28677;DHT22;15858;48.338;11.078;2023-04-21T07:22:34;7.20;99.90
28677;DHT22;15858;48.338;11.078;2023-04-21T07:25:04;7.30;99.90
28677;DHT22;15858;48.338;11.078;2023-04-21T07:27:32;7.30;99.90
28677;DHT22;15858;48.338;11.078;2023-04-21T07:29:59;7.40;99.90
28677;DHT22;15858;48.338;11.078;2023-04-21T07:32:25;7.50;99.90
28677;DHT22;15858;48.338;11.078;2023-04-21T07:34:52;7.50;99.90
28677;DHT22;15858;48.338;11.078;2023-04-21T07:37:20;7.50;99.90
28677;DHT22;15858;48.338;11.078;2023-04-21T07:39:46;7.50;99.90
28677;DHT22;15858;48.338;11.078;2023-04-21T07:42:13;7.60;99.90
28677;DHT22;15858;48.338;11.078;2023-04-21T07:44:39;7.60;99.90
28677;DHT22;15858;48.338;11.078;2023-04-21T07:47:06;7.60;99.90
28677;DHT22;15858;48.338;11.078;2023-04-21T07:49:33;7.70;99.90
28677;DHT22;15858;48.338;11.078;2023-04-21T07:51:59;7.80;99.90
28677;DHT22;15858;48.338;11.078;2023-04-21T07:54:26;7.80;99.90
28677;DHT22;15858;48.338;11.078;2023-04-21T07:56:53;7.80;99.90
28677;DHT22;15858;48.338;11.078;2023-04-21T07:59:19;7.90;99.90
28677;DHT22;15858;48.338;11.078;2023-04-21T08:01:46;7.90;99.90
28677;DHT22;15858;48.338;11.078;2023-04-21T08:04:13;7.90;99.90
28677;DHT22;15858;48.338;11.078;2023-04-21T08:06:40;8.00;99.90
28677;DHT22;15858;48.338;11.078;2023-04-21T08:09:06;7.90;99.90
28677;DHT22;15858;48.338;11.078;2023-04-21T08:11:34;7.90;99.90
28677;DHT22;15858;48.338;11.078;2023-04-21T08:14:01;8.00;99.90
28677;DHT22;15858;48.338;11.078;2023-04-21T08:16:28;8.00;99.90
28677;DHT22;15858;48.338;11.078;2023-04-21T08:18:55;8.10;99.90
28677;DHT22;15858;48.338;11.078;2023-04-21T08:21:21;8.20;99.90
28677;DHT22;15858;48.338;11.078;2023-04-21T08:23:48;8.30;99.90
28677;DHT22;15858;48.338;11.078;2023-04-21T08:26:15;8.40;99.90
28677;DHT22;15858;48.338;11.078;2023-04-21T08:28:41;8.50;99.90
28677;DHT22;15858;48.338;11.078;2023-04-21T08:31:08;8.70;99.90
28677;DHT22;15858;48.338;11.078;2023-04-21T08:33:35;8.80;99.90
28677;DHT22;15858;48.338;11.078;2023-04-21T08:36:16;8.90;99.90
28677;DHT22;15858;48.338;11.078;2023-04-21T08:38:54;9.10;99.90
28677;DHT22;15858;48.338;11.078;2023-04-21T08:41:21;9.20;99.90
28677;DHT22;15858;48.338;11.078;2023-04-21T08:43:48;9.20;99.90
28677;DHT22;15858;48.338;11.078;2023-04-21T08:46:15;9.20;99.90
28677;DHT22;15858;48.338;11.078;2023-04-21T08:48:42;9.20;99.90
28677;DHT22;15858;48.338;11.078;2023-04-21T08:51:09;9.30;99.90
28677;DHT22;15858;48.338;11.078;2023-04-21T08:53:36;9.30;99.90
28677;DHT22;15858;48.338;11.078;2023-04-21T08:56:03;9.30;99.90
28677;DHT22;15858;48.338;11.078;2023-04-21T08:58:37;9.60;99.90
28677;DHT22;15858;48.338;11.078;2023-04-21T09:01:04;9.80;99.90
28677;DHT22;15858;48.338;11.078;2023-04-21T09:03:30;9.80;99.90
28677;DHT22;15858;48.338;11.078;2023-04-21T09:05:59;10.00;99.90
28677;DHT22;15858;48.338;11.078;2023-04-21T09:08:28;10.20;99.90
28677;DHT22;15858;48.338;11.078;2023-04-21T09:10:55;10.10;99.90
28677;DHT22;15858;48.338;11.078;2023-04-21T09:13:29;10.10;99.90
28677;DHT22;15858;48.338;11.078;2023-04-21T09:15:57;10.10;99.90
28677;DHT22;15858;48.338;11.078;2023-04-21T09:18:26;10.10;99.90
28677;DHT22;15858;48.338;11.078;2023-04-21T09:21:08;10.10;99.90
28677;DHT22;15858;48.338;11.078;2023-04-21T09:23:49;10.20;99.90
28677;DHT22;15858;48.338;11.078;2023-04-21T09:26:18;10.30;99.90
28677;DHT22;15858;48.338;11.078;2023-04-21T09:28:47;10.30;99.90
28677;DHT22;15858;48.338;11.078;2023-04-21T09:31:19;10.30;99.90
28677;DHT22;15858;48.338;11.078;2023-04-21T09:33:53;10.40;99.90
28677;DHT22;15858;48.338;11.078;2023-04-21T09:36:27;10.50;99.90
28677;DHT22;15858;48.338;11.078;2023-04-21T09:41:40;10.70;99.90
28677;DHT22;15858;48.338;11.078;2023-04-21T09:44:08;10.90;99.90
28677;DHT22;15858;48.338;11.078;2023-04-21T09:46:35;10.90;99.90
28677;DHT22;15858;48.338;11.078;2023-04-21T09:49:03;11.10;99.90
28677;DHT22;15858;48.338;11.078;2023-04-21T09:51:30;11.00;99.90
28677;DHT22;15858;48.338;11.078;2023-04-21T09:54:19;11.00;99.90
28677;DHT22;15858;48.338;11.078;2023-04-21T09:56:52;10.90;99.90
28677;DHT22;15858;48.338;11.078;2023-04-21T09:59:25;10.90;99.90
28677;DHT22;15858;48.338;11.078;2023-04-21T10:01:54;10.80;99.90
28677;DHT22;15858;48.338;11.078;2023-04-21T10:04:24;10.90;99.90
28677;DHT22;15858;48.338;11.078;2023-04-21T10:06:52;10.90;99.90
28677;DHT22;15858;48.338;11.078;2023-04-21T10:09:21;11.00;99.90
28677;DHT22;15858;48.338;11.078;2023-04-21T10:11:48;11.00;99.90
28677;DHT22;15858;48.338;11.078;2023-04-21T10:14:15;11.20;99.90
28677;DHT22;15858;48.338;11.078;2023-04-21T10:16:41;11.10;99.90
28677;DHT22;15858;48.338;11.078;2023-04-21T10:19:28;11.20;99.90
28677;DHT22;15858;48.338;11.078;2023-04-21T10:21:55;11.10;99.90
28677;DHT22;15858;48.338;11.078;2023-04-21T10:24:22;11.10;99.90
28677;DHT22;15858;48.338;11.078;2023-04-21T10:26:49;11.10;99.90
28677;DHT22;15858;48.338;11.078;2023-04-21T10:29:32;11.20;99.90
28677;DHT22;15858;48.338;11.078;2023-04-21T10:32:41;11.40;99.90
28677;DHT22;15858;48.338;11.078;2023-04-21T10:38:39;11.80;99.90
28677;DHT22;15858;48.338;11.078;2023-04-21T10:41:26;12.00;99.90
28677;DHT22;15858;48.338;11.078;2023-04-21T10:43:54;12.10;99.90
28677;DHT22;15858;48.338;11.078;2023-04-21T10:46:32;12.20;99.90
28677;DHT22;15858;48.338;11.078;2023-04-21T10:49:10;12.30;99.90
28677;DHT22;15858;48.338;11.078;2023-04-21T10:54:29;12.70;99.90
28677;DHT22;15858;48.338;11.078;2023-04-21T10:56:57;12.80;99.90
28677;DHT22;15858;48.338;11.078;2023-04-21T10:59:25;12.70;99.90
28677;DHT22;15858;48.338;11.078;2023-04-21T11:01:53;12.70;99.90
28677;DHT22;15858;48.338;11.078;2023-04-21T11:04:20;12.70;99.90
28677;DHT22;15858;48.338;11.078;2023-04-21T11:07:05;12.80;99.90
28677;DHT22;15858;48.338;11.078;2023-04-21T11:09:32;12.90;99.90
28677;DHT22;15858;48.338;11.078;2023-04-21T11:12:00;13.00;99.90
28677;DHT22;15858;48.338;11.078;2023-04-21T11:14:28;13.10;99.90
28677;DHT22;15858;48.338;11.078;2023-04-21T11:16:54;13.40;99.90
28677;DHT22;15858;48.338;11.078;2023-04-21T11:19:21;13.70;99.90
28677;DHT22;15858;48.338;11.078;2023-04-21T11:21:48;13.90;99.90
28677;DHT22;15858;48.338;11.078;2023-04-21T11:24:15;14.10;99.90
28677;DHT22;15858;48.338;11.078;2023-04-21T11:26:42;14.40;99.90
28677;DHT22;15858;48.338;11.078;2023-04-21T11:29:10;14.60;99.90
28677;DHT22;15858;48.338;11.078;2023-04-21T11:31:41;14.70;99.90
28677;DHT22;15858;48.338;11.078;2023-04-21T11:34:08;14.90;99.90
28677;DHT22;15858;48.338;11.078;2023-04-21T11:36:37;15.20;99.90
28677;DHT22;15858;48.338;11.078;2023-04-21T11:39:15;15.50;99.90
28677;DHT22;15858;48.338;11.078;2023-04-21T11:41:44;15.70;99.90
28677;DHT22;15858;48.338;11.078;2023-04-21T11:44:12;15.80;99.90
28677;DHT22;15858;48.338;11.078;2023-04-21T11:46:45;15.90;99.90
28677;DHT22;15858;48.338;11.078;2023-04-21T11:49:14;16.10;99.90
28677;DHT22;15858;48.338;11.078;2023-04-21T11:51:42;16.20;99.90
28677;DHT22;15858;48.338;11.078;2023-04-21T11:54:11;16.30;99.90
28677;DHT22;15858;48.338;11.078;2023-04-21T11:56:44;16.40;99.90
28677;DHT22;15858;48.338;11.078;2023-04-21T11:59:13;16.50;99.90
28677;DHT22;15858;48.338;11.078;2023-04-21T12:01:50;16.60;99.90
28677;DHT22;15858;48.338;11.078;2023-04-21T12:04:19;16.70;99.90
28677;DHT22;15858;48.338;11.078;2023-04-21T12:06:57;16.80;99.90
28677;DHT22;15858;48.338;11.078;2023-04-21T12:09:24;16.90;99.90
28677;DHT22;15858;48.338;11.078;2023-04-21T12:11:53;17.00;99.90
28677;DHT22;15858;48.338;11.078;2023-04-21T12:14:21;17.10;99.90
28677;DHT22;15858;48.338;11.078;2023-04-21T12:16:53;17.20;99.90
28677;DHT22;15858;48.338;11.078;2023-04-21T12:19:36;17.30;99.90
28677;DHT22;15858;48.338;11.078;2023-04-21T12:22:10;17.40;99.90
28677;DHT22;15858;48.338;11.078;2023-04-21T12:24:37;17.30;99.90
28677;DHT22;15858;48.338;11.078;2023-04-21T12:27:04;17.40;99.90
28677;DHT22;15858;48.338;11.078;2023-04-21T12:29:31;17.60;99.90
28677;DHT22;15858;48.338;11.078;2023-04-21T12:31:58;17.80;99.90
28677;DHT22;15858;48.338;11.078;2023-04-21T12:34:25;17.80;99.90
28677;DHT22;15858;48.338;11.078;2023-04-21T12:36:51;17.90;99.90
28677;DHT22;15858;48.338;11.078;2023-04-21T12:39:18;17.80;99.90
28677;DHT22;15858;48.338;11.078;2023-04-21T12:41:45;18.00;99.90
28677;DHT22;15858;48.338;11.078;2023-04-21T12:44:12;18.10;99.90
28677;DHT22;15858;48.338;11.078;2023-04-21T12:46:39;18.30;99.90
28677;DHT22;15858;48.338;11.078;2023-04-21T12:49:06;18.20;99.90
28677;DHT22;15858;48.338;11.078;2023-04-21T12:51:33;18.10;99.90
28677;DHT22;15858;48.338;11.078;2023-04-21T12:54:00;18.10;99.90
28677;DHT22;15858;48.338;11.078;2023-04-21T12:56:27;18.10;99.90
28677;DHT22;15858;48.338;11.078;2023-04-21T12:58:53;18.30;99.90
28677;DHT22;15858;48.338;11.078;2023-04-21T13:01:20;18.50;99.90
28677;DHT22;15858;48.338;11.078;2023-04-21T13:03:47;18.60;99.90
28677;DHT22;15858;48.338;11.078;2023-04-21T13:06:14;18.70;99.90
28677;DHT22;15858;48.338;11.078;2023-04-21T13:08:41;18.70;99.90
28677;DHT22;15858;48.338;11.078;2023-04-21T13:11:07;18.60;99.90
28677;DHT22;15858;48.338;11.078;2023-04-21T13:13:34;18.70;99.90
28677;DHT22;15858;48.338;11.078;2023-04-21T13:16:00;18.70;99.90
28677;DHT22;15858;48.338;11.078;2023-04-21T13:18:27;18.80;99.90
28677;DHT22;15858;48.338;11.078;2023-04-21T13:20:54;18.80;99.90
28677;DHT22;15858;48.338;11.078;2023-04-21T13:23:20;18.60;99.90
28677;DHT22;15858;48.338;11.078;2023-04-21T13:25:47;18.60;99.90
28677;DHT22;15858;48.338;11.078;2023-04-21T13:28:14;18.60;99.90
28677;DHT22;15858;48.338;11.078;2023-04-21T13:30:41;18.60;99.90
28677;DHT22;15858;48.338;11.078;2023-04-21T13:33:07;18.50;99.90
28677;DHT22;15858;48.338;11.078;2023-04-21T13:35:34;18.60;99.90
28677;DHT22;15858;48.338;11.078;2023-04-21T13:38:01;18.60;99.90
28677;DHT22;15858;48.338;11.078;2023-04-21T13:40:27;18.70;99.90
28677;DHT22;15858;48.338;11.078;2023-04-21T13:42:54;18.60;99.90
28677;DHT22;15858;48.338;11.078;2023-04-21T13:45:21;18.70;99.90
28677;DHT22;15858;48.338;11.078;2023-04-21T13:47:47;18.80;99.90
28677;DHT22;15858;48.338;11.078;2023-04-21T13:50:14;18.90;99.90
28677;DHT22;15858;48.338;11.078;2023-04-21T13:52:41;18.90;99.90
28677;DHT22;15858;48.338;11.078;2023-04-21T13:55:07;18.90;99.90
28677;DHT22;15858;48.338;11.078;2023-04-21T13:57:34;18.90;99.90
28677;DHT22;15858;48.338;11.078;2023-04-21T14:00:01;18.80;99.90
28677;DHT22;15858;48.338;11.078;2023-04-21T14:02:28;18.80;99.90
28677;DHT22;15858;48.338;11.078;2023-04-21T14:04:55;18.90;99.90
28677;DHT22;15858;48.338;11.078;2023-04-21T14:07:22;18.90;99.90
28677;DHT22;15858;48.338;11.078;2023-04-21T14:09:51;19.00;99.90
28677;DHT22;15858;48.338;11.078;2023-04-21T14:12:18;18.90;99.90
28677;DHT22;15858;48.338;11.078;2023-04-21T14:14:45;19.00;99.90
28677;DHT22;15858;48.338;11.078;2023-04-21T14:17:11;19.00;99.90
28677;DHT22;15858;48.338;11.078;2023-04-21T14:19:38;19.00;99.90
28677;DHT22;15858;48.338;11.078;2023-04-21T14:22:05;18.90;99.90
28677;DHT22;15858;48.338;11.078;2023-04-21T14:24:31;18.80;99.90
28677;DHT22;15858;48.338;11.078;2023-04-21T14:26:58;18.80;99.90
28677;DHT22;15858;48.338;11.078;2023-04-21T14:29:25;18.70;99.90
28677;DHT22;15858;48.338;11.078;2023-04-21T14:31:51;18.80;99.90
28677;DHT22;15858;48.338;11.078;2023-04-21T14:34:18;18.90;99.90
28677;DHT22;15858;48.338;11.078;2023-04-21T14:36:45;18.90;99.90
28677;DHT22;15858;48.338;11.078;2023-04-21T14:39:11;18.90;99.90
28677;DHT22;15858;48.338;11.078;2023-04-21T14:41:38;19.00;99.90
28677;DHT22;15858;48.338;11.078;2023-04-21T14:44:05;19.00;99.90
28677;DHT22;15858;48.338;11.078;2023-04-21T14:46:31;19.10;99.90
28677;DHT22;15858;48.338;11.078;2023-04-21T14:48:58;19.00;99.90
28677;DHT22;15858;48.338;11.078;2023-04-21T14:51:25;19.00;99.90
28677;DHT22;15858;48.338;11.078;2023-04-21T14:53:51;18.90;99.90
28677;DHT22;15858;48.338;11.078;2023-04-21T14:56:18;19.00;99.90
28677;DHT22;15858;48.338;11.078;2023-04-21T14:58:45;19.00;99.90
28677;DHT22;15858;48.338;11.078;2023-04-21T15:01:12;19.10;99.90
28677;DHT22;15858;48.338;11.078;2023-04-21T15:03:38;19.00;99.90
28677;DHT22;15858;48.338;11.078;2023-04-21T15:06:05;19.10;99.90
28677;DHT22;15858;48.338;11.078;2023-04-21T15:08:32;19.20;99.90
28677;DHT22;15858;48.338;11.078;2023-04-21T15:10:59;19.20;99.90
28677;DHT22;15858;48.338;11.078;2023-04-21T15:13:25;19.20;99.70
28677;DHT22;15858;48.338;11.078;2023-04-21T15:15:52;19.10;99.90
28677;DHT22;15858;48.338;11.078;2023-04-21T15:18:18;19.10;99.60
28677;DHT22;15858;48.338;11.078;2023-04-21T15:20:45;19.20;99.40
28677;DHT22;15858;48.338;11.078;2023-04-21T15:23:12;19.20;99.90
28677;DHT22;15858;48.338;11.078;2023-04-21T15:25:39;19.10;99.90
28677;DHT22;15858;48.338;11.078;2023-04-21T15:28:06;19.10;99.90
28677;DHT22;15858;48.338;11.078;2023-04-21T15:30:32;19.20;99.90
28677;DHT22;15858;48.338;11.078;2023-04-21T15:32:59;19.30;99.90
28677;DHT22;15858;48.338;11.078;2023-04-21T15:35:26;19.40;98.80
28677;DHT22;15858;48.338;11.078;2023-04-21T15:37:52;19.40;99.70